Time,TemperatureF,DewpointF,PressureIn,WindDirection,WindDirectionDegrees,WindSpeedMPH,WindSpeedGustMPH,Humidity,HourlyPrecipIn,Conditions,Clouds,dailyrainin,SoftwareType,DateUTC
2013-04-30 00:02:00,69.0,50.0,29.34,SSW,213,0.0,6.0,50,0.00,,,0.00,,2013-04-30 05:02:00,
2013-04-30 00:12:00,69.0,50.0,29.34,SSW,213,0.0,6.0,50,0.00,,,0.00,,2013-04-30 05:12:00,
2013-04-30 00:22:00,68.0,49.0,29.34,SSW,194,2.0,6.0,51,0.00,,,0.00,,2013-04-30 05:22:00,
2013-04-30 00:31:00,68.0,50.0,29.34,ESE,113,2.0,9.0,52,0.00,,,0.00,,2013-04-30 05:31:00,
2013-04-30 00:42:00,68.0,50.0,29.34,ESE,113,2.0,9.0,52,0.00,,,0.00,,2013-04-30 05:42:00,
2013-04-30 00:51:00,68.0,49.0,29.33,SSW,204,5.0,11.0,51,0.00,,,0.00,,2013-04-30 05:51:00,
2013-04-30 01:02:00,69.0,49.0,29.34,SSW,211,6.0,16.0,49,0.00,,,0.00,,2013-04-30 06:02:00,
2013-04-30 01:12:00,69.0,49.0,29.34,SSW,211,6.0,16.0,49,0.00,,,0.00,,2013-04-30 06:12:00,
2013-04-30 01:21:00,69.0,48.0,29.34,SSW,197,6.0,16.0,48,0.00,,,0.00,,2013-04-30 06:21:00,
2013-04-30 01:32:00,68.0,48.0,29.34,SSW,204,7.0,16.0,49,0.00,,,0.00,,2013-04-30 06:32:00,
2013-04-30 01:41:00,68.0,48.0,29.34,SSW,204,7.0,16.0,49,0.00,,,0.00,,2013-04-30 06:41:00,
2013-04-30 01:52:00,68.0,48.0,29.34,SSW,192,6.0,16.0,49,0.00,,,0.00,,2013-04-30 06:52:00,
2013-04-30 02:01:00,67.0,49.0,29.34,SSW,207,7.0,12.0,52,0.00,,,0.00,,2013-04-30 07:01:00,
2013-04-30 02:11:00,67.0,49.0,29.34,SSW,207,7.0,12.0,52,0.00,,,0.00,,2013-04-30 07:11:00,
2013-04-30 02:21:00,66.0,49.0,29.34,SW,228,5.0,11.0,54,0.00,,,0.00,,2013-04-30 07:21:00,
2013-04-30 02:31:00,66.0,49.0,29.34,SW,215,8.0,13.0,54,0.00,,,0.00,,2013-04-30 07:31:00,
2013-04-30 02:42:00,66.0,49.0,29.34,SW,215,8.0,13.0,54,0.00,,,0.00,,2013-04-30 07:42:00,
2013-04-30 02:52:00,65.0,48.0,29.35,SSW,207,8.0,14.0,55,0.00,,,0.00,,2013-04-30 07:52:00,
2013-04-30 03:02:00,65.0,48.0,29.36,SSW,193,6.0,13.0,55,0.00,,,0.00,,2013-04-30 08:02:00,
2013-04-30 03:11:00,65.0,48.0,29.36,SSW,193,6.0,13.0,55,0.00,,,0.00,,2013-04-30 08:11:00,
2013-04-30 03:21:00,68.0,46.0,29.36,SSW,192,10.0,20.0,46,0.00,,,0.00,,2013-04-30 08:21:00,
2013-04-30 03:32:00,68.0,46.0,29.36,SW,227,7.0,16.0,45,0.00,,,0.00,,2013-04-30 08:32:00,
2013-04-30 03:42:00,68.0,46.0,29.36,SW,227,7.0,16.0,45,0.00,,,0.00,,2013-04-30 08:42:00,
2013-04-30 03:52:00,66.0,46.0,29.37,SSW,212,6.0,11.0,48,0.00,,,0.00,,2013-04-30 08:52:00,
2013-04-30 04:01:00,66.0,46.0,29.36,SSW,211,6.0,11.0,48,0.00,,,0.00,,2013-04-30 09:01:00,
2013-04-30 04:11:00,66.0,46.0,29.36,SSW,211,6.0,11.0,48,0.00,,,0.00,,2013-04-30 09:11:00,
2013-04-30 04:22:00,66.0,45.0,29.37,SW,231,4.0,7.0,46,0.00,,,0.00,,2013-04-30 09:22:00,
2013-04-30 04:33:00,66.0,44.0,29.37,SW,219,0.0,5.0,45,0.00,,,0.00,,2013-04-30 09:33:00,
2013-04-30 04:43:00,66.0,44.0,29.37,SW,219,0.0,5.0,45,0.00,,,0.00,,2013-04-30 09:43:00,
2013-04-30 04:52:00,65.0,44.0,29.40,NNW,343,4.0,8.0,46,0.00,,,0.00,,2013-04-30 09:52:00,
2013-04-30 05:03:00,61.0,44.0,29.42,North,355,7.0,13.0,54,0.00,,,0.00,,2013-04-30 10:03:00,
2013-04-30 05:11:00,61.0,44.0,29.42,North,355,7.0,13.0,54,0.00,,,0.00,,2013-04-30 10:11:00,
2013-04-30 05:22:00,55.0,41.0,29.44,NNE,32,10.0,18.0,58,0.00,,,0.00,,2013-04-30 10:22:00,
2013-04-30 05:32:00,54.0,41.0,29.43,NE,38,9.0,17.0,62,0.00,,,0.00,,2013-04-30 10:32:00,
2013-04-30 05:41:00,54.0,41.0,29.43,NE,38,9.0,17.0,62,0.00,,,0.00,,2013-04-30 10:41:00,
2013-04-30 05:52:00,53.0,42.0,29.46,NNE,12,9.0,17.0,65,0.00,,,0.00,,2013-04-30 10:52:00,
2013-04-30 06:02:00,52.0,41.0,29.50,North,10,4.0,10.0,65,0.00,,,0.00,,2013-04-30 11:02:00,
2013-04-30 06:11:00,52.0,41.0,29.50,North,10,4.0,10.0,65,0.00,,,0.00,,2013-04-30 11:11:00,
2013-04-30 06:21:00,51.0,40.0,29.50,ENE,69,6.0,13.0,66,0.00,,,0.00,,2013-04-30 11:21:00,
2013-04-30 06:31:00,50.0,39.0,29.51,NNE,25,4.0,10.0,67,0.00,,,0.00,,2013-04-30 11:31:00,
2013-04-30 06:42:00,50.0,39.0,29.51,NNE,25,4.0,10.0,67,0.00,,,0.00,,2013-04-30 11:42:00,
2013-04-30 06:51:00,50.0,40.0,29.53,ENE,63,5.0,11.0,68,0.00,,,0.00,,2013-04-30 11:51:00,
2013-04-30 07:01:00,50.0,41.0,29.54,NNE,24,4.0,10.0,70,0.00,,,0.00,,2013-04-30 12:01:00,
2013-04-30 07:11:00,50.0,41.0,29.54,NNE,24,4.0,10.0,70,0.00,,,0.00,,2013-04-30 12:11:00,
2013-04-30 07:21:00,49.0,40.0,29.55,NE,37,5.0,10.0,71,0.00,,,0.00,,2013-04-30 12:21:00,
2013-04-30 07:31:00,49.0,40.0,29.55,NE,41,5.0,10.0,72,0.00,,,0.00,,2013-04-30 12:31:00,
2013-04-30 07:41:00,49.0,40.0,29.55,NE,41,5.0,10.0,72,0.00,,,0.00,,2013-04-30 12:41:00,
2013-04-30 07:51:00,49.0,40.0,29.57,NNE,22,6.0,12.0,72,0.00,,,0.00,,2013-04-30 12:51:00,
2013-04-30 08:01:00,49.0,40.0,29.56,NE,42,9.0,17.0,70,0.00,,,0.00,,2013-04-30 13:01:00,
2013-04-30 08:11:00,49.0,40.0,29.56,NE,42,9.0,17.0,70,0.00,,,0.00,,2013-04-30 13:11:00,
2013-04-30 08:21:00,49.0,40.0,29.58,NNE,26,7.0,19.0,70,0.00,,,0.00,,2013-04-30 13:21:00,
2013-04-30 08:31:00,50.0,40.0,29.57,NNE,15,7.0,17.0,69,0.00,,,0.00,,2013-04-30 13:31:00,
2013-04-30 08:41:00,50.0,40.0,29.57,NNE,15,7.0,17.0,69,0.00,,,0.00,,2013-04-30 13:41:00,
2013-04-30 08:51:00,51.0,40.0,29.57,North,5,10.0,19.0,67,0.00,,,0.00,,2013-04-30 13:51:00,
2013-04-30 09:02:00,51.0,40.0,29.58,NNW,340,6.0,16.0,66,0.00,,,0.00,,2013-04-30 14:02:00,
2013-04-30 09:11:00,51.0,40.0,29.58,NNW,340,6.0,16.0,66,0.00,,,0.00,,2013-04-30 14:11:00,
2013-04-30 09:21:00,51.0,40.0,29.59,ENE,66,9.0,16.0,66,0.00,,,0.00,,2013-04-30 14:21:00,
2013-04-30 09:31:00,52.0,41.0,29.59,NNE,15,8.0,15.0,65,0.00,,,0.00,,2013-04-30 14:31:00,
2013-04-30 09:41:00,52.0,41.0,29.59,NNE,15,8.0,15.0,65,0.00,,,0.00,,2013-04-30 14:41:00,
2013-04-30 09:52:00,52.0,40.0,29.59,ENE,57,7.0,14.0,63,0.00,,,0.00,,2013-04-30 14:52:00,
2013-04-30 10:01:00,52.0,39.0,29.61,ENE,57,5.0,16.0,62,0.00,,,0.00,,2013-04-30 15:01:00,
2013-04-30 10:11:00,52.0,39.0,29.61,ENE,57,5.0,16.0,62,0.00,,,0.00,,2013-04-30 15:11:00,
2013-04-30 10:21:00,53.0,39.0,29.61,NE,46,8.0,16.0,59,0.00,,,0.00,,2013-04-30 15:21:00,
2013-04-30 10:32:00,53.0,39.0,29.61,ESE,103,4.0,12.0,58,0.00,,,0.00,,2013-04-30 15:32:00,
2013-04-30 10:42:00,53.0,39.0,29.61,ESE,103,4.0,12.0,58,0.00,,,0.00,,2013-04-30 15:42:00,
2013-04-30 10:52:00,53.0,39.0,29.63,ENE,69,8.0,15.0,58,0.00,,,0.00,,2013-04-30 15:52:00,
2013-04-30 11:02:00,53.0,39.0,29.64,ENE,61,3.0,11.0,58,0.00,,,0.00,,2013-04-30 16:02:00,
2013-04-30 11:12:00,53.0,39.0,29.64,ENE,61,3.0,11.0,58,0.00,,,0.00,,2013-04-30 16:12:00,
2013-04-30 11:23:00,54.0,39.0,29.63,NE,44,6.0,11.0,56,0.00,,,0.00,,2013-04-30 16:23:00,
2013-04-30 11:33:00,55.0,39.0,29.63,NE,40,4.0,11.0,55,0.00,,,0.00,,2013-04-30 16:33:00,
2013-04-30 11:42:00,55.0,39.0,29.63,NE,40,4.0,11.0,55,0.00,,,0.00,,2013-04-30 16:42:00,
2013-04-30 11:52:00,56.0,39.0,29.64,ENE,77,4.0,9.0,53,0.00,,,0.00,,2013-04-30 16:52:00,
2013-04-30 12:02:00,57.0,39.0,29.65,NE,38,6.0,11.0,50,0.00,,,0.00,,2013-04-30 17:02:00,
2013-04-30 12:12:00,57.0,39.0,29.65,NE,38,6.0,11.0,50,0.00,,,0.00,,2013-04-30 17:12:00,
2013-04-30 12:22:00,58.0,38.0,29.65,NE,53,5.0,11.0,48,0.00,,,0.00,,2013-04-30 17:22:00,
2013-04-30 12:32:00,59.0,38.0,29.65,East,81,4.0,10.0,46,0.00,,,0.00,,2013-04-30 17:32:00,
2013-04-30 12:42:00,59.0,38.0,29.65,East,81,4.0,10.0,46,0.00,,,0.00,,2013-04-30 17:42:00,
2013-04-30 12:52:00,59.0,38.0,29.64,NE,46,2.0,11.0,46,0.00,,,0.00,,2013-04-30 17:52:00,
2013-04-30 13:01:00,60.0,38.0,29.64,NE,52,6.0,12.0,44,0.00,,,0.00,,2013-04-30 18:01:00,
2013-04-30 13:11:00,60.0,38.0,29.64,NE,52,6.0,12.0,44,0.00,,,0.00,,2013-04-30 18:11:00,
2013-04-30 13:22:00,61.0,39.0,29.64,ENE,59,2.0,9.0,44,0.00,,,0.00,,2013-04-30 18:22:00,
2013-04-30 13:32:00,62.0,37.0,29.64,ESE,104,2.0,12.0,40,0.00,,,0.00,,2013-04-30 18:32:00,
2013-04-30 13:42:00,62.0,37.0,29.64,ESE,104,2.0,12.0,40,0.00,,,0.00,,2013-04-30 18:42:00,
2013-04-30 13:51:00,62.0,37.0,29.64,NE,51,4.0,12.0,39,0.00,,,0.00,,2013-04-30 18:51:00,
2013-04-30 14:01:00,62.0,36.0,29.64,ENE,65,2.0,10.0,38,0.00,,,0.00,,2013-04-30 19:01:00,
2013-04-30 14:11:00,62.0,36.0,29.64,ENE,65,2.0,10.0,38,0.00,,,0.00,,2013-04-30 19:11:00,
2013-04-30 14:22:00,62.0,35.0,29.63,SE,140,3.0,10.0,36,0.00,,,0.00,,2013-04-30 19:22:00,
2013-04-30 14:32:00,64.0,37.0,29.63,SW,223,4.0,10.0,36,0.00,,,0.00,,2013-04-30 19:32:00,
2013-04-30 14:42:00,64.0,37.0,29.63,SW,223,4.0,10.0,36,0.00,,,0.00,,2013-04-30 19:42:00,
2013-04-30 14:52:00,67.0,37.0,29.65,ENE,61,3.0,10.0,33,0.00,,,0.00,,2013-04-30 19:52:00,
2013-04-30 15:02:00,65.0,34.0,29.65,NE,34,6.0,14.0,32,0.00,,,0.00,,2013-04-30 20:02:00,
2013-04-30 15:11:00,65.0,34.0,29.65,NE,34,6.0,14.0,32,0.00,,,0.00,,2013-04-30 20:11:00,
2013-04-30 15:21:00,66.0,34.0,29.65,NE,49,5.0,12.0,31,0.00,,,0.00,,2013-04-30 20:21:00,
2013-04-30 15:32:00,67.0,34.0,29.64,SE,124,5.0,9.0,29,0.00,,,0.00,,2013-04-30 20:32:00,
2013-04-30 15:42:00,67.0,34.0,29.64,SE,124,5.0,9.0,29,0.00,,,0.00,,2013-04-30 20:42:00,
2013-04-30 15:52:00,67.0,34.0,29.64,NE,38,4.0,11.0,29,0.00,,,0.00,,2013-04-30 20:52:00,
2013-04-30 16:02:00,67.0,34.0,29.66,NE,51,2.0,12.0,29,0.00,,,0.00,,2013-04-30 21:02:00,
2013-04-30 16:11:00,67.0,34.0,29.66,NE,51,2.0,12.0,29,0.00,,,0.00,,2013-04-30 21:11:00,
2013-04-30 16:22:00,66.0,34.0,29.66,NE,36,5.0,12.0,30,0.00,,,0.00,,2013-04-30 21:22:00,
2013-04-30 16:32:00,66.0,34.0,29.65,NE,40,6.0,15.0,31,0.00,,,0.00,,2013-04-30 21:32:00,
2013-04-30 16:42:00,66.0,34.0,29.65,NE,40,6.0,15.0,31,0.00,,,0.00,,2013-04-30 21:42:00,
2013-04-30 16:52:00,66.0,34.0,29.65,ENE,61,6.0,11.0,31,0.00,,,0.00,,2013-04-30 21:52:00,
2013-04-30 17:02:00,66.0,35.0,29.65,ENE,67,3.0,16.0,32,0.00,,,0.00,,2013-04-30 22:02:00,
2013-04-30 17:12:00,66.0,35.0,29.65,ENE,67,3.0,16.0,32,0.00,,,0.00,,2013-04-30 22:12:00,
2013-04-30 17:23:00,66.0,34.0,29.64,East,97,4.0,12.0,31,0.00,,,0.00,,2013-04-30 22:23:00,
2013-04-30 17:32:00,65.0,34.0,29.65,NE,40,4.0,11.0,32,0.00,,,0.00,,2013-04-30 22:32:00,
2013-04-30 17:41:00,65.0,34.0,29.65,NE,40,4.0,11.0,32,0.00,,,0.00,,2013-04-30 22:41:00,
2013-04-30 17:52:00,65.0,34.0,29.67,ENE,60,4.0,12.0,32,0.00,,,0.00,,2013-04-30 22:52:00,
2013-04-30 18:02:00,65.0,35.0,29.68,NE,35,3.0,11.0,33,0.00,,,0.00,,2013-04-30 23:02:00,
2013-04-30 18:12:00,65.0,35.0,29.68,NE,35,3.0,11.0,33,0.00,,,0.00,,2013-04-30 23:12:00,
2013-04-30 18:22:00,65.0,34.0,29.68,SE,141,3.0,11.0,32,0.00,,,0.00,,2013-04-30 23:22:00,
2013-04-30 18:32:00,65.0,34.0,29.68,NE,52,6.0,11.0,31,0.00,,,0.00,,2013-04-30 23:32:00,
2013-04-30 18:42:00,65.0,34.0,29.68,NE,52,6.0,11.0,31,0.00,,,0.00,,2013-04-30 23:42:00,
2013-04-30 18:52:00,64.0,34.0,29.67,East,88,2.0,10.0,32,0.00,,,0.00,,2013-04-30 23:52:00,
2013-04-30 19:02:00,64.0,34.0,29.67,ENE,67,5.0,11.0,32,0.00,,,0.00,,2013-05-01 00:02:00,
2013-04-30 19:11:00,64.0,34.0,29.67,ENE,67,5.0,11.0,32,0.00,,,0.00,,2013-05-01 00:11:00,
2013-04-30 19:21:00,63.0,33.0,29.68,ENE,76,3.0,9.0,32,0.00,,,0.00,,2013-05-01 00:21:00,
2013-04-30 19:32:00,63.0,33.0,29.68,ENE,63,4.0,11.0,32,0.00,,,0.00,,2013-05-01 00:32:00,
2013-04-30 19:42:00,63.0,33.0,29.68,ENE,63,4.0,11.0,32,0.00,,,0.00,,2013-05-01 00:42:00,
2013-04-30 19:51:00,63.0,32.0,29.68,ENE,66,5.0,11.0,31,0.00,,,0.00,,2013-05-01 00:51:00,
2013-04-30 20:01:00,63.0,32.0,29.70,NE,36,4.0,11.0,31,0.00,,,0.00,,2013-05-01 01:01:00,
2013-04-30 20:11:00,63.0,32.0,29.70,NE,36,4.0,11.0,31,0.00,,,0.00,,2013-05-01 01:11:00,
2013-04-30 20:21:00,61.0,26.0,29.70,NE,42,7.0,14.0,26,0.00,,,0.00,,2013-05-01 01:21:00,
2013-04-30 20:32:00,61.0,26.0,29.72,NNE,26,5.0,13.0,26,0.00,,,0.00,,2013-05-01 01:32:00,
2013-04-30 20:42:00,61.0,26.0,29.72,NNE,26,5.0,13.0,26,0.00,,,0.00,,2013-05-01 01:42:00,
2013-04-30 20:52:00,60.0,26.0,29.72,ENE,67,7.0,13.0,27,0.00,,,0.00,,2013-05-01 01:52:00,
2013-04-30 21:02:00,60.0,25.0,29.68,ENE,62,6.0,17.0,26,0.00,,,0.00,,2013-05-01 02:02:00,
2013-04-30 21:11:00,60.0,25.0,29.68,ENE,62,6.0,17.0,26,0.00,,,0.00,,2013-05-01 02:11:00,
2013-04-30 21:21:00,59.0,25.0,29.72,NE,46,5.0,14.0,27,0.00,,,0.00,,2013-05-01 02:21:00,
2013-04-30 21:32:00,59.0,25.0,29.73,NE,53,5.0,14.0,27,0.00,,,0.00,,2013-05-01 02:32:00,
2013-04-30 21:42:00,59.0,25.0,29.73,NE,53,5.0,14.0,27,0.00,,,0.00,,2013-05-01 02:42:00,
2013-04-30 21:52:00,59.0,26.0,29.75,East,82,6.0,18.0,28,0.00,,,0.00,,2013-05-01 02:52:00,
2013-04-30 22:01:00,58.0,26.0,29.77,North,9,6.0,14.0,29,0.00,,,0.00,,2013-05-01 03:01:00,
2013-04-30 22:11:00,58.0,26.0,29.77,North,9,6.0,14.0,29,0.00,,,0.00,,2013-05-01 03:11:00,
2013-04-30 22:21:00,57.0,27.0,29.78,East,92,10.0,24.0,31,0.00,,,0.00,,2013-05-01 03:21:00,
2013-04-30 22:33:00,54.0,30.0,29.81,NNE,30,10.0,19.0,40,0.00,,,0.00,,2013-05-01 03:33:00,
2013-04-30 22:43:00,54.0,30.0,29.81,NNE,30,10.0,19.0,40,0.00,,,0.00,,2013-05-01 03:43:00,
2013-04-30 22:53:00,53.0,30.0,29.79,NE,54,8.0,20.0,41,0.00,,,0.00,,2013-05-01 03:53:00,
2013-04-30 23:03:00,52.0,31.0,29.80,NNE,14,8.0,17.0,45,0.00,,,0.00,,2013-05-01 04:03:00,
2013-04-30 23:12:00,52.0,31.0,29.80,NNE,14,8.0,17.0,45,0.00,,,0.00,,2013-05-01 04:12:00,
2013-04-30 23:22:00,51.0,33.0,29.85,NE,34,8.0,20.0,49,0.00,,,0.00,,2013-05-01 04:22:00,
2013-04-30 23:32:00,50.0,34.0,29.85,East,80,8.0,22.0,55,0.00,,,0.00,,2013-05-01 04:32:00,
2013-04-30 23:43:00,50.0,34.0,29.85,East,80,8.0,22.0,55,0.00,,,0.00,,2013-05-01 04:43:00,
2013-04-30 23:52:00,49.0,34.0,29.82,ENE,69,9.0,19.0,57,0.00,,,0.00,,2013-05-01 04:52:00,